Terminal Aerodrome Forecast
Issued by NWS Sioux Falls, SD

Home | Current Version | Previous Version | Graphics & Text | Print | Product List | Glossary Off
Versions: 1 2 3 4 5 6 7 8 9 10 11 12 13 14

000
FTUS43 KFSD 252103 AAA
TAFHON
TAF AMD
KHON 252103Z 2521/2618 VRB03KT P6SM BKN007 OVC025
     FM252230 VRB04KT P6SM BKN025
     FM260100 18007KT P6SM SCT025 BKN100
     FM260800 26012KT P6SM BKN100
     FM261100 31014G20KT P6SM SKC=

USA.gov is the U.S. government's official web portal to all federal, state and local government web resources and services.